createdAt,value
2023-05-19T00:01:25.191Z,10.90
2023-05-19T00:03:54.692Z,10.90
2023-05-19T00:06:27.286Z,12.10
2023-05-19T00:09:00.036Z,10.90
2023-05-19T00:11:29.173Z,10.80
2023-05-19T00:13:59.210Z,10.80
2023-05-19T00:16:28.805Z,10.80
2023-05-19T00:18:58.186Z,10.70
2023-05-19T00:21:25.959Z,10.70
2023-05-19T00:23:54.096Z,10.70
2023-05-19T00:26:24.668Z,11.90
2023-05-19T00:28:58.068Z,10.60
2023-05-19T00:31:25.641Z,10.70
2023-05-19T00:33:53.417Z,10.70
2023-05-19T00:36:20.852Z,10.50
2023-05-19T00:38:48.377Z,10.40
2023-05-19T00:41:15.851Z,10.50
2023-05-19T00:43:43.487Z,11.30
2023-05-19T00:46:11.067Z,11.20
2023-05-19T00:48:38.629Z,10.40
2023-05-19T00:51:06.680Z,10.40
2023-05-19T00:53:35.502Z,10.40
2023-05-19T00:56:03.862Z,11.90
2023-05-19T00:58:32.978Z,10.30
2023-05-19T01:01:06.943Z,10.30
2023-05-19T01:03:36.119Z,11.40
2023-05-19T01:06:07.432Z,10.30
2023-05-19T01:08:37.369Z,10.20
2023-05-19T01:11:06.743Z,10.30
2023-05-19T01:13:36.360Z,10.20
2023-05-19T01:16:12.715Z,10.20
2023-05-19T01:19:01.557Z,10.20
2023-05-19T01:21:36.493Z,10.10
2023-05-19T01:24:22.939Z,11.70
2023-05-19T01:27:18.763Z,10.10
2023-05-19T01:30:09.521Z,8.50
2023-05-19T01:32:40.801Z,10.10
2023-05-19T01:35:10.316Z,10.10
2023-05-19T01:37:39.194Z,10.10
2023-05-19T01:40:10.933Z,10.80
2023-05-19T01:42:40.584Z,10.20
2023-05-19T01:45:12.204Z,9.90
2023-05-19T01:47:44.128Z,10.00
2023-05-19T01:50:11.877Z,9.40
2023-05-19T01:52:39.457Z,9.90
2023-05-19T01:55:09.447Z,10.80
2023-05-19T01:58:00.669Z,9.80
2023-05-19T02:00:31.376Z,9.90
2023-05-19T02:03:24.894Z,9.90
2023-05-19T02:05:52.274Z,10.40
2023-05-19T02:08:27.609Z,10.00
2023-05-19T02:11:07.704Z,9.80
2023-05-19T02:13:42.393Z,10.40
2023-05-19T02:16:11.440Z,9.90
2023-05-19T02:18:45.428Z,10.00
2023-05-19T02:21:13.607Z,9.60
2023-05-19T02:23:42.065Z,9.60
2023-05-19T02:26:09.776Z,9.70
2023-05-19T02:28:37.278Z,8.20
2023-05-19T02:31:09.020Z,9.70
2023-05-19T02:33:37.470Z,11.90
2023-05-19T02:36:05.701Z,12.00
2023-05-19T02:38:33.186Z,9.60
2023-05-19T02:41:00.792Z,9.60
2023-05-19T02:43:30.790Z,11.70
2023-05-19T02:45:58.303Z,9.50
2023-05-19T02:48:27.249Z,9.60
2023-05-19T02:50:54.783Z,9.50
2023-05-19T02:53:22.195Z,9.50
2023-05-19T02:55:49.698Z,9.50
2023-05-19T02:58:17.097Z,9.50
2023-05-19T03:00:45.347Z,10.10
2023-05-19T03:03:13.949Z,10.90
2023-05-19T03:05:42.969Z,9.40
2023-05-19T03:08:10.446Z,10.10
2023-05-19T03:10:40.904Z,9.60
2023-05-19T03:13:08.327Z,10.50
2023-05-19T03:15:36.593Z,9.60
2023-05-19T03:18:04.500Z,9.40
2023-05-19T03:20:32.088Z,9.30
2023-05-19T03:23:00.001Z,11.20
2023-05-19T03:25:27.541Z,10.30
2023-05-19T03:27:54.991Z,10.40
2023-05-19T03:30:22.833Z,9.70
2023-05-19T03:33:05.439Z,10.80
2023-05-19T03:35:32.990Z,9.50
2023-05-19T03:38:00.603Z,9.20
2023-05-19T03:40:28.105Z,10.30
2023-05-19T03:43:02.382Z,9.30
2023-05-19T03:45:29.928Z,9.40
2023-05-19T03:47:57.665Z,9.40
2023-05-19T03:50:44.516Z,9.20
2023-05-19T03:53:26.305Z,9.40
2023-05-19T03:55:55.532Z,9.80
2023-05-19T03:58:24.142Z,10.50
2023-05-19T04:00:53.915Z,9.80
2023-05-19T04:03:26.297Z,10.80
2023-05-19T04:05:53.821Z,9.20
2023-05-19T04:08:21.273Z,11.20
2023-05-19T04:10:48.664Z,9.70
2023-05-19T04:13:16.497Z,9.30
2023-05-19T04:15:43.997Z,9.30
2023-05-19T04:18:11.743Z,9.30
2023-05-19T04:20:41.022Z,9.40
2023-05-19T04:23:08.773Z,10.30
2023-05-19T04:25:36.394Z,9.40
2023-05-19T04:28:03.950Z,10.70
2023-05-19T04:30:31.987Z,9.50
2023-05-19T04:33:01.131Z,9.40
2023-05-19T04:35:28.934Z,10.00
2023-05-19T04:37:57.875Z,9.50
2023-05-19T04:40:31.232Z,9.60
2023-05-19T04:43:02.134Z,10.40
2023-05-19T04:45:33.074Z,12.00
2023-05-19T04:48:02.646Z,10.30
2023-05-19T04:50:31.115Z,10.20
2023-05-19T04:52:59.372Z,9.80
2023-05-19T04:55:28.919Z,9.70
2023-05-19T04:57:56.534Z,10.00
2023-05-19T05:00:25.360Z,9.70
2023-05-19T05:02:58.314Z,9.90
2023-05-19T05:05:28.195Z,10.70
2023-05-19T05:07:56.265Z,12.10
2023-05-19T05:10:25.807Z,7.50
2023-05-19T05:12:54.580Z,10.20
2023-05-19T05:15:22.743Z,10.00
2023-05-19T05:17:52.451Z,10.10
2023-05-19T05:20:21.645Z,10.20
2023-05-19T05:22:49.344Z,10.20
2023-05-19T05:25:17.922Z,10.30
2023-05-19T05:27:45.856Z,10.40
2023-05-19T05:30:14.560Z,11.90
2023-05-19T05:32:43.161Z,11.20
2023-05-19T05:35:33.027Z,11.80
2023-05-19T05:38:01.858Z,10.70
2023-05-19T05:40:30.883Z,10.80
2023-05-19T05:43:01.569Z,11.30
2023-05-19T05:45:33.038Z,11.10
2023-05-19T05:48:02.275Z,11.10
2023-05-19T05:50:37.064Z,11.10
2023-05-19T05:53:50.079Z,11.10
2023-05-19T06:08:18.208Z,11.60
2023-05-19T06:10:47.325Z,11.70
2023-05-19T06:13:17.942Z,11.70
2023-05-19T06:15:45.601Z,11.90
2023-05-19T06:18:26.814Z,12.50
2023-05-19T06:25:33.880Z,12.20
2023-05-19T06:28:01.977Z,12.40
2023-05-19T06:30:29.627Z,12.50
2023-05-19T06:33:08.924Z,12.60
2023-05-19T06:35:36.540Z,12.70
2023-05-19T06:38:05.758Z,12.80
2023-05-19T06:40:33.751Z,13.00
2023-05-19T06:43:01.462Z,13.10
2023-05-19T06:45:54.833Z,13.10
2023-05-19T06:48:23.760Z,13.30
2023-05-19T06:50:51.859Z,13.30
2023-05-19T06:53:21.408Z,13.40
2023-05-19T06:55:58.882Z,13.70
2023-05-19T06:58:34.051Z,13.50
2023-05-19T07:01:04.264Z,13.60
2023-05-19T07:03:37.236Z,13.50
2023-05-19T07:06:07.761Z,13.50
2023-05-19T07:08:37.509Z,13.30
2023-05-19T07:11:06.850Z,13.30
2023-05-19T07:13:34.716Z,13.30
2023-05-19T07:16:02.229Z,13.40
2023-05-19T07:18:32.713Z,13.60
2023-05-19T07:21:00.369Z,13.70
2023-05-19T07:23:28.092Z,13.90
2023-05-19T07:25:58.898Z,14.10
2023-05-19T07:28:26.385Z,14.30
2023-05-19T07:30:53.809Z,14.60
2023-05-19T07:33:21.395Z,14.90
2023-05-19T07:35:49.068Z,14.80
2023-05-19T07:38:16.595Z,14.70
2023-05-19T07:40:45.477Z,14.80
2023-05-19T07:43:12.927Z,14.80
2023-05-19T07:45:41.321Z,14.90
2023-05-19T07:48:08.974Z,14.80
2023-05-19T07:50:37.067Z,14.90
2023-05-19T07:53:04.516Z,15.30
2023-05-19T07:55:32.024Z,15.20
2023-05-19T07:57:59.530Z,15.20
2023-05-19T08:00:27.220Z,15.20
2023-05-19T08:02:56.954Z,15.30
2023-05-19T08:05:26.111Z,15.30
2023-05-19T08:07:53.615Z,15.30
2023-05-19T08:10:22.274Z,15.40
2023-05-19T08:12:49.851Z,15.60
2023-05-19T08:15:17.469Z,15.70
2023-05-19T08:17:45.101Z,15.60
2023-05-19T08:20:12.791Z,15.80
2023-05-19T08:22:40.497Z,15.70
2023-05-19T08:25:09.630Z,15.70
2023-05-19T08:27:37.512Z,15.80
2023-05-19T08:30:05.613Z,15.90
2023-05-19T08:32:33.286Z,16.00
2023-05-19T08:35:00.739Z,16.40
2023-05-19T08:37:28.271Z,16.40
2023-05-19T08:39:55.783Z,16.40
2023-05-19T08:42:25.639Z,16.50
2023-05-19T08:44:54.839Z,16.90
2023-05-19T08:47:22.890Z,16.80
2023-05-19T08:49:59.295Z,16.90
2023-05-19T08:52:52.483Z,17.40
2023-05-19T08:55:59.075Z,16.30
2023-05-19T08:58:28.795Z,17.40
2023-05-19T09:01:03.299Z,17.20
2023-05-19T09:03:33.039Z,17.50
2023-05-19T09:06:01.571Z,17.30
2023-05-19T09:08:29.259Z,17.40
2023-05-19T09:10:59.631Z,17.50
2023-05-19T09:13:34.290Z,17.80
2023-05-19T09:19:32.365Z,17.90
2023-05-19T09:22:03.672Z,18.00
2023-05-19T09:24:34.335Z,18.10
2023-05-19T09:27:02.264Z,18.10
2023-05-19T09:29:30.172Z,18.10
2023-05-19T09:32:04.337Z,17.40
2023-05-19T09:34:33.994Z,17.90
2023-05-19T09:37:06.134Z,18.50
2023-05-19T09:39:38.622Z,18.20
2023-05-19T09:42:06.913Z,18.30
2023-05-19T09:44:36.110Z,18.30
2023-05-19T09:47:16.972Z,18.50
2023-05-19T09:50:54.844Z,18.30
2023-05-19T10:01:13.093Z,18.60
2023-05-19T10:03:41.635Z,19.00
2023-05-19T10:06:10.153Z,19.00
2023-05-19T10:08:39.797Z,18.80
2023-05-19T10:11:08.574Z,18.80
2023-05-19T10:13:38.980Z,20.10
2023-05-19T10:16:08.483Z,18.70
2023-05-19T10:18:37.577Z,18.80
2023-05-19T10:21:08.686Z,18.70
2023-05-19T10:23:36.204Z,18.80
2023-05-19T10:26:06.764Z,18.90
2023-05-19T10:28:42.574Z,19.10
2023-05-19T10:31:14.857Z,19.20
2023-05-19T10:33:48.078Z,19.20
2023-05-19T10:36:21.573Z,19.30
2023-05-19T10:38:58.811Z,19.40
2023-05-19T10:42:03.740Z,19.40
2023-05-19T10:45:04.670Z,19.50
2023-05-19T10:47:33.625Z,19.50
2023-05-19T10:50:01.578Z,19.50
2023-05-19T10:52:31.067Z,19.60
2023-05-19T10:54:58.878Z,19.60
2023-05-19T10:57:32.073Z,19.70
2023-05-19T11:00:07.942Z,19.70
2023-05-19T11:02:45.070Z,19.70
2023-05-19T11:05:18.414Z,19.80
2023-05-19T11:07:56.378Z,19.90
2023-05-19T11:10:24.342Z,19.90
2023-05-19T11:12:52.489Z,20.00
2023-05-19T11:15:26.004Z,21.00
2023-05-19T11:17:54.205Z,17.90
2023-05-19T11:20:29.101Z,20.10
2023-05-19T11:23:09.501Z,20.20
2023-05-19T11:25:51.727Z,20.10
2023-05-19T11:28:22.799Z,20.10
2023-05-19T11:30:51.724Z,20.20
2023-05-19T11:33:20.971Z,20.20
2023-05-19T11:35:50.684Z,20.20
2023-05-19T11:38:19.957Z,20.40
2023-05-19T11:40:49.731Z,20.50
2023-05-19T11:43:17.485Z,20.60
2023-05-19T11:45:45.970Z,21.20
2023-05-19T11:48:13.922Z,20.50
2023-05-19T11:50:42.328Z,20.50
2023-05-19T11:53:16.499Z,20.50
2023-05-19T11:55:48.436Z,20.50
2023-05-19T11:58:16.815Z,20.50
2023-05-19T12:00:47.701Z,20.50
2023-05-19T12:03:15.957Z,20.50
2023-05-19T12:05:46.777Z,20.30
2023-05-19T12:08:16.577Z,21.00
2023-05-19T12:10:44.061Z,20.50
2023-05-19T12:13:12.431Z,20.50
2023-05-19T12:15:39.913Z,21.60
2023-05-19T12:18:07.753Z,20.90
2023-05-19T12:20:36.137Z,21.00
2023-05-19T12:23:04.285Z,21.00
2023-05-19T12:25:32.657Z,21.00
2023-05-19T12:28:04.738Z,21.10
2023-05-19T12:30:34.790Z,21.10
2023-05-19T12:33:03.089Z,21.20
2023-05-19T12:35:36.268Z,21.20
2023-05-19T12:38:07.200Z,21.10
2023-05-19T12:40:36.149Z,20.90
2023-05-19T12:43:04.252Z,20.80
2023-05-19T12:45:36.222Z,20.90
2023-05-19T12:48:05.836Z,20.70
2023-05-19T12:50:34.339Z,20.70
2023-05-19T12:53:02.255Z,20.70
2023-05-19T12:55:30.261Z,20.70
2023-05-19T12:57:58.610Z,20.80
2023-05-19T13:00:29.002Z,20.90
2023-05-19T13:03:06.035Z,21.20
2023-05-19T13:05:39.347Z,21.10
2023-05-19T13:08:15.064Z,20.90
2023-05-19T13:10:44.893Z,20.80
2023-05-19T13:13:13.051Z,20.80
2023-05-19T13:15:50.362Z,21.10
2023-05-19T13:18:19.016Z,20.90
2023-05-19T13:20:47.420Z,20.90
2023-05-19T13:23:16.918Z,20.90
2023-05-19T13:25:44.462Z,20.80
2023-05-19T13:28:11.939Z,20.90
2023-05-19T13:30:40.843Z,20.90
2023-05-19T13:33:08.390Z,20.90
2023-05-19T13:35:39.018Z,21.00
2023-05-19T13:38:09.664Z,21.00
2023-05-19T13:40:37.767Z,21.80
2023-05-19T13:43:06.083Z,21.10
2023-05-19T13:45:33.704Z,21.10
2023-05-19T13:48:01.269Z,21.10
2023-05-19T13:50:28.752Z,21.10
2023-05-19T13:52:56.270Z,22.30
2023-05-19T13:55:23.769Z,20.90
2023-05-19T13:57:51.156Z,20.70
2023-05-19T14:00:19.370Z,20.70
2023-05-19T14:02:47.396Z,20.50
2023-05-19T14:05:14.934Z,20.60
2023-05-19T14:07:42.626Z,20.60
2023-05-19T14:10:10.568Z,20.50
2023-05-19T14:12:49.564Z,20.60
2023-05-19T14:15:27.459Z,20.70
2023-05-19T14:17:54.989Z,20.70
2023-05-19T14:20:22.716Z,20.80
2023-05-19T14:22:50.141Z,20.90
2023-05-19T14:25:17.558Z,20.90
2023-05-19T14:27:44.991Z,20.90
2023-05-19T14:30:12.768Z,20.90
2023-05-19T14:32:40.380Z,21.00
2023-05-19T14:35:10.673Z,21.00
2023-05-19T14:37:41.604Z,20.10
2023-05-19T14:40:10.264Z,18.60
2023-05-19T14:42:45.593Z,21.20
2023-05-19T14:45:16.339Z,20.70
2023-05-19T14:47:44.048Z,20.70
2023-05-19T14:50:11.812Z,20.70
2023-05-19T14:52:39.405Z,20.80
2023-05-19T14:55:07.642Z,21.30
2023-05-19T14:57:45.371Z,20.80
2023-05-19T15:00:32.638Z,20.80
2023-05-19T15:03:01.325Z,20.90
2023-05-19T15:05:28.916Z,20.60
2023-05-19T15:07:59.054Z,20.90
2023-05-19T15:10:26.637Z,20.90
2023-05-19T15:12:54.208Z,21.10
2023-05-19T15:15:22.103Z,20.90
2023-05-19T15:17:49.696Z,20.90
2023-05-19T15:20:17.681Z,20.80
2023-05-19T15:22:45.639Z,21.30
2023-05-19T15:25:14.524Z,20.90
2023-05-19T15:27:42.135Z,19.60
2023-05-19T15:30:10.015Z,20.80
2023-05-19T15:32:37.849Z,20.70
2023-05-19T15:35:06.416Z,21.00
2023-05-19T15:37:34.599Z,20.70
2023-05-19T15:40:02.329Z,19.40
2023-05-19T15:42:32.174Z,20.80
2023-05-19T15:45:04.607Z,20.80
2023-05-19T15:47:32.690Z,20.60
2023-05-19T15:50:00.380Z,20.80
2023-05-19T15:52:27.995Z,21.30
2023-05-19T15:54:59.365Z,21.40
2023-05-19T15:57:26.891Z,20.10
2023-05-19T15:59:54.430Z,20.50
2023-05-19T16:02:22.137Z,20.80
2023-05-19T16:04:49.800Z,19.60
2023-05-19T16:07:18.598Z,20.90
2023-05-19T16:09:46.777Z,19.70
2023-05-19T16:12:17.263Z,20.60
2023-05-19T16:14:44.906Z,20.60
2023-05-19T16:17:19.504Z,20.60
2023-05-19T16:19:57.767Z,21.00
2023-05-19T16:22:26.109Z,20.50
2023-05-19T16:24:53.706Z,20.50
2023-05-19T16:27:21.526Z,20.50
2023-05-19T16:29:49.641Z,20.70
2023-05-19T16:32:20.299Z,22.70
2023-05-19T16:34:47.988Z,20.50
2023-05-19T16:37:16.920Z,20.50
2023-05-19T16:39:48.460Z,20.70
2023-05-19T16:42:16.644Z,20.50
2023-05-19T16:44:44.254Z,20.70
2023-05-19T16:47:13.121Z,20.50
2023-05-19T16:49:40.989Z,20.50
2023-05-19T16:52:08.705Z,20.70
2023-05-19T16:54:36.521Z,20.60
2023-05-19T16:57:04.228Z,20.60
2023-05-19T16:59:31.864Z,20.60
2023-05-19T17:01:59.417Z,20.60
2023-05-19T17:04:30.026Z,20.80
2023-05-19T17:06:58.288Z,20.60
2023-05-19T17:09:26.302Z,20.50
2023-05-19T17:11:54.238Z,20.40
2023-05-19T17:14:23.677Z,20.40
2023-05-19T17:16:58.464Z,20.20
2023-05-19T17:19:26.157Z,20.20
2023-05-19T17:21:53.902Z,20.00
2023-05-19T17:24:24.761Z,19.90
2023-05-19T17:26:54.886Z,18.30
2023-05-19T17:29:22.538Z,19.80
2023-05-19T17:31:50.065Z,19.80
2023-05-19T17:34:17.728Z,19.60
2023-05-19T17:36:45.253Z,19.60
2023-05-19T17:39:12.922Z,19.50
2023-05-19T17:41:40.522Z,19.90
2023-05-19T17:44:08.052Z,19.50
2023-05-19T17:46:36.257Z,19.30
2023-05-19T17:49:04.055Z,19.20
2023-05-19T17:51:32.191Z,18.20
2023-05-19T17:54:00.028Z,19.10
2023-05-19T17:56:32.169Z,19.00
2023-05-19T17:58:59.867Z,18.90
2023-05-19T18:01:27.631Z,18.80
2023-05-19T18:04:16.083Z,18.90
2023-05-19T18:06:47.380Z,18.50
2023-05-19T18:09:19.235Z,18.50
2023-05-19T18:11:49.274Z,18.80
2023-05-19T18:14:18.485Z,18.20
2023-05-19T18:16:52.861Z,18.10
2023-05-19T18:19:29.197Z,18.10
2023-05-19T18:21:56.805Z,18.10
2023-05-19T18:24:25.080Z,18.00
2023-05-19T18:26:56.714Z,18.20
2023-05-19T18:29:28.170Z,18.00
2023-05-19T18:31:55.826Z,18.90
2023-05-19T18:34:23.873Z,15.80
2023-05-19T18:36:51.679Z,18.00
2023-05-19T18:39:20.561Z,17.80
2023-05-19T18:41:48.482Z,17.60
2023-05-19T18:44:16.243Z,17.80
2023-05-19T18:46:43.810Z,17.60
2023-05-19T18:49:11.971Z,17.50
2023-05-19T18:51:39.893Z,17.30
2023-05-19T18:54:07.691Z,17.30
2023-05-19T18:56:35.799Z,17.40
2023-05-19T18:59:03.430Z,17.40
2023-05-19T19:01:30.990Z,17.20
2023-05-19T19:03:59.649Z,17.10
2023-05-19T19:06:27.195Z,17.00
2023-05-19T19:08:56.113Z,17.10
2023-05-19T19:11:23.573Z,17.00
2023-05-19T19:13:51.345Z,17.00
2023-05-19T19:16:19.114Z,16.80
2023-05-19T19:18:46.686Z,16.90
2023-05-19T19:21:14.181Z,16.90
2023-05-19T19:23:41.646Z,16.90
2023-05-19T19:26:09.601Z,16.90
2023-05-19T19:28:37.189Z,16.90
2023-05-19T19:31:04.672Z,16.90
2023-05-19T19:33:34.604Z,16.70
2023-05-19T19:36:07.469Z,16.70
2023-05-19T19:38:34.880Z,16.70
2023-05-19T19:41:03.171Z,16.60
2023-05-19T19:43:30.830Z,16.60
2023-05-19T19:46:04.532Z,16.50
2023-05-19T19:48:32.344Z,16.50
2023-05-19T19:55:58.645Z,16.40
2023-05-19T19:58:26.989Z,16.40
2023-05-19T20:01:03.686Z,16.30
2023-05-19T20:03:33.210Z,16.30
2023-05-19T20:06:02.297Z,16.20
2023-05-19T20:08:30.876Z,16.30
2023-05-19T20:10:58.585Z,17.70
2023-05-19T20:13:27.770Z,16.20
2023-05-19T20:15:57.645Z,16.20
2023-05-19T20:18:25.859Z,16.00
2023-05-19T20:20:53.489Z,16.00
2023-05-19T20:23:21.334Z,16.20
2023-05-19T20:26:09.343Z,16.10
2023-05-19T20:29:23.993Z,16.10
2023-05-19T20:31:51.490Z,15.90
2023-05-19T20:34:19.060Z,15.80
2023-05-19T20:36:46.752Z,15.70
2023-05-19T20:39:15.865Z,16.00
2023-05-19T20:41:43.745Z,15.80
2023-05-19T20:44:17.023Z,15.70
2023-05-19T20:46:44.522Z,15.70
2023-05-19T20:49:13.366Z,16.10
2023-05-19T20:51:41.246Z,15.60
2023-05-19T20:54:08.686Z,15.50
2023-05-19T20:56:36.225Z,15.50
2023-05-19T20:59:04.124Z,15.50
2023-05-19T21:01:31.872Z,15.50
2023-05-19T21:04:01.352Z,15.40
2023-05-19T21:06:28.758Z,15.30
2023-05-19T21:08:56.236Z,15.40
2023-05-19T21:11:23.881Z,15.30
2023-05-19T21:13:51.410Z,15.30
2023-05-19T21:16:18.851Z,15.30
2023-05-19T21:18:46.297Z,15.30
2023-05-19T21:21:13.699Z,15.20
2023-05-19T21:23:41.077Z,15.20
2023-05-19T21:26:09.722Z,15.70
2023-05-19T21:28:37.115Z,15.10
2023-05-19T21:31:05.618Z,15.10
2023-05-19T21:33:33.070Z,15.10
2023-05-19T21:36:00.640Z,15.00
2023-05-19T21:38:28.290Z,15.00
2023-05-19T21:40:55.667Z,15.00
2023-05-19T21:43:23.326Z,15.00
2023-05-19T21:45:50.861Z,14.90
2023-05-19T21:48:18.362Z,15.00
2023-05-19T21:50:46.007Z,15.00
2023-05-19T21:53:13.388Z,14.90
2023-05-19T21:55:40.838Z,14.90
2023-05-19T21:58:08.189Z,14.90
2023-05-19T22:00:36.832Z,14.90
2023-05-19T22:03:04.694Z,14.90
2023-05-19T22:05:35.001Z,14.80
2023-05-19T22:08:02.710Z,14.80
2023-05-19T22:10:30.168Z,14.80
2023-05-19T22:12:57.910Z,14.90
2023-05-19T22:15:26.248Z,14.90
2023-05-19T22:17:53.720Z,14.70
2023-05-19T22:20:21.205Z,14.70
2023-05-19T22:22:48.631Z,14.80
2023-05-19T22:25:16.601Z,14.70
2023-05-19T22:27:46.359Z,14.70
2023-05-19T22:30:13.745Z,14.70
2023-05-19T22:32:41.244Z,14.70
2023-05-19T22:35:08.914Z,14.70
2023-05-19T22:37:36.370Z,14.60
2023-05-19T22:40:04.002Z,14.70
2023-05-19T22:42:31.414Z,14.50
2023-05-19T22:44:59.109Z,14.50
2023-05-19T22:47:26.670Z,14.50
2023-05-19T22:49:55.690Z,14.50
2023-05-19T22:52:24.523Z,14.40
2023-05-19T22:54:51.974Z,14.50
2023-05-19T22:57:19.486Z,14.40
2023-05-19T22:59:46.935Z,14.60
2023-05-19T23:02:14.312Z,14.30
2023-05-19T23:04:41.684Z,14.30
2023-05-19T23:07:09.083Z,14.40
2023-05-19T23:09:36.539Z,14.20
2023-05-19T23:12:04.070Z,14.40
2023-05-19T23:14:31.722Z,14.20
2023-05-19T23:16:59.312Z,14.20
2023-05-19T23:19:29.229Z,14.40
2023-05-19T23:21:56.676Z,14.00
2023-05-19T23:24:24.138Z,14.10
2023-05-19T23:26:53.494Z,14.10
2023-05-19T23:29:21.097Z,14.50
2023-05-19T23:31:48.572Z,14.00
2023-05-19T23:34:16.120Z,14.00
2023-05-19T23:36:43.630Z,13.90
2023-05-19T23:39:11.360Z,14.00
2023-05-19T23:41:38.903Z,14.00
2023-05-19T23:44:06.436Z,14.10
2023-05-19T23:46:33.937Z,13.80
2023-05-19T23:49:01.519Z,15.10
2023-05-19T23:51:28.973Z,13.80
2023-05-19T23:53:56.811Z,13.80
2023-05-19T23:56:24.275Z,13.90
2023-05-19T23:58:51.626Z,13.90
